createdAt,value
2023-03-01T00:00:08.040Z,1018.11
2023-03-01T00:01:08.005Z,1018.12
2023-03-01T00:02:08.064Z,1018.06
2023-03-01T00:03:08.026Z,1018.09
2023-03-01T00:04:07.961Z,1018.05
2023-03-01T00:05:07.975Z,1018.04
2023-03-01T00:06:08.336Z,1018.09
2023-03-01T00:07:07.927Z,1018.12
2023-03-01T00:08:07.905Z,1018.07
2023-03-01T00:09:07.928Z,1018.08
2023-03-01T00:10:07.888Z,1018.08
2023-03-01T00:11:08.019Z,1018.11
2023-03-01T00:12:08.222Z,1018.05
2023-03-01T00:13:08.076Z,1017.98
2023-03-01T00:14:07.840Z,1018.08
2023-03-01T00:15:07.822Z,1017.98
2023-03-01T00:16:07.811Z,1017.99
2023-03-01T00:17:08.079Z,1017.97
2023-03-01T00:18:07.793Z,1018.03
2023-03-01T00:19:07.781Z,1017.95
2023-03-01T00:20:07.766Z,1018.03
2023-03-01T00:21:07.751Z,1017.97
2023-03-01T00:22:07.743Z,1018.05
2023-03-01T00:23:08.098Z,1018.06
2023-03-01T00:24:07.709Z,1017.94
2023-03-01T00:25:07.701Z,1017.98
2023-03-01T00:26:07.693Z,1017.94
2023-03-01T00:27:07.680Z,1017.91
2023-03-01T00:28:07.890Z,1017.88
2023-03-01T00:29:07.899Z,1017.85
2023-03-01T00:30:07.659Z,1017.84
2023-03-01T00:31:07.737Z,1017.82
2023-03-01T00:32:07.638Z,1017.88
2023-03-01T00:33:07.603Z,1017.86
2023-03-01T00:34:07.784Z,1017.89
2023-03-01T00:35:07.581Z,1017.92
2023-03-01T00:36:07.563Z,1017.88
2023-03-01T00:37:07.566Z,1017.86
2023-03-01T00:38:07.543Z,1017.87
2023-03-01T00:39:07.724Z,1017.89
2023-03-01T00:40:07.518Z,1017.89
2023-03-01T00:41:07.513Z,1017.89
2023-03-01T00:42:07.719Z,1017.88
2023-03-01T00:43:07.496Z,1017.86
2023-03-01T00:44:07.659Z,1017.85
2023-03-01T00:45:07.461Z,1017.80
2023-03-01T00:46:07.499Z,1017.79
2023-03-01T00:47:07.448Z,1017.78
2023-03-01T00:48:07.418Z,1017.78
2023-03-01T00:49:07.810Z,1017.73
2023-03-01T00:50:07.392Z,1017.76
2023-03-01T00:51:07.402Z,1017.69
2023-03-01T00:52:07.380Z,1017.73
2023-03-01T00:53:07.368Z,1017.69
2023-03-01T00:54:07.379Z,1017.70
2023-03-01T00:55:07.358Z,1017.74
2023-03-01T00:56:07.327Z,1017.65
2023-03-01T00:57:07.537Z,1017.59
2023-03-01T00:58:07.305Z,1017.60
2023-03-01T00:59:07.515Z,1017.63
2023-03-01T01:00:07.276Z,1017.63
2023-03-01T01:01:07.284Z,1017.64
2023-03-01T01:02:07.246Z,1017.61
2023-03-01T01:03:07.245Z,1017.59
2023-03-01T01:04:07.299Z,1017.65
2023-03-01T01:05:07.224Z,1017.70
2023-03-01T01:06:07.193Z,1017.66
2023-03-01T01:07:07.384Z,1017.62
2023-03-01T01:08:07.182Z,1017.62
2023-03-01T01:09:07.173Z,1017.66
2023-03-01T01:10:07.161Z,1017.65
2023-03-01T01:11:07.369Z,1017.63
2023-03-01T01:12:07.128Z,1017.65
2023-03-01T01:13:07.119Z,1017.55
2023-03-01T01:14:07.280Z,1017.61
2023-03-01T01:15:07.090Z,1017.55
2023-03-01T01:16:07.137Z,1017.55
2023-03-01T01:17:07.288Z,1017.53
2023-03-01T01:18:07.058Z,1017.58
2023-03-01T01:19:07.406Z,1017.56
2023-03-01T01:20:07.026Z,1017.50
2023-03-01T01:21:07.028Z,1017.48
2023-03-01T01:22:07.006Z,1017.43
2023-03-01T01:23:06.988Z,1017.50
2023-03-01T01:24:07.208Z,1017.42
2023-03-01T01:25:07.178Z,1017.45
2023-03-01T01:26:06.957Z,1017.48
2023-03-01T01:27:06.944Z,1017.47
2023-03-01T01:28:06.944Z,1017.37
2023-03-01T01:29:07.129Z,1017.42
2023-03-01T01:30:06.943Z,1017.40
2023-03-01T01:31:07.006Z,1017.38
2023-03-01T01:32:07.165Z,1017.39
2023-03-01T01:33:06.883Z,1017.37
2023-03-01T01:34:06.855Z,1017.34
2023-03-01T01:35:07.054Z,1017.38
2023-03-01T01:36:06.875Z,1017.36
2023-03-01T01:37:07.042Z,1017.32
2023-03-01T01:38:06.803Z,1017.28
2023-03-01T01:39:06.791Z,1017.31
2023-03-01T01:40:06.789Z,1017.27
2023-03-01T01:41:06.782Z,1017.32
2023-03-01T01:42:06.751Z,1017.29
2023-03-01T01:43:06.761Z,1017.32
2023-03-01T01:44:06.731Z,1017.32
2023-03-01T01:45:06.720Z,1017.35
2023-03-01T01:46:06.747Z,1017.33
2023-03-01T01:47:06.927Z,1017.32
2023-03-01T01:48:06.675Z,1017.23
2023-03-01T01:49:06.670Z,1017.21
2023-03-01T01:50:06.895Z,1017.38
2023-03-01T01:51:06.646Z,1017.24
2023-03-01T01:52:06.626Z,1017.27
2023-03-01T01:53:06.627Z,1017.34
2023-03-01T01:54:06.609Z,1017.29
2023-03-01T01:55:06.633Z,1017.28
2023-03-01T01:56:06.576Z,1017.35
2023-03-01T01:57:06.577Z,1017.29
2023-03-01T01:58:06.557Z,1017.29
2023-03-01T01:59:06.546Z,1017.28
2023-03-01T02:00:06.766Z,1017.27
2023-03-01T02:01:06.536Z,1017.31
2023-03-01T02:02:06.527Z,1017.30
2023-03-01T02:03:06.645Z,1017.23
2023-03-01T02:04:06.474Z,1017.31
2023-03-01T02:05:06.676Z,1017.20
2023-03-01T02:06:06.442Z,1017.20
2023-03-01T02:07:06.448Z,1017.20
2023-03-01T02:08:06.433Z,1017.24
2023-03-01T02:09:06.422Z,1017.17
2023-03-01T02:10:06.424Z,1017.09
2023-03-01T02:11:06.401Z,1017.07
2023-03-01T02:12:06.603Z,1017.15
2023-03-01T02:13:06.381Z,1017.16
2023-03-01T02:14:06.352Z,1017.19
2023-03-01T02:15:06.369Z,1017.20
2023-03-01T02:16:06.598Z,1017.21
2023-03-01T02:17:06.323Z,1017.14
2023-03-01T02:18:06.325Z,1017.13
2023-03-01T02:19:06.301Z,1017.14
2023-03-01T02:20:06.281Z,1017.16
2023-03-01T02:21:06.480Z,1017.18
2023-03-01T02:22:06.263Z,1017.15
2023-03-01T02:23:06.250Z,1017.14
2023-03-01T02:24:06.230Z,1017.11
2023-03-01T02:25:06.417Z,1017.09
2023-03-01T02:26:06.219Z,1017.10
2023-03-01T02:27:06.208Z,1017.07
2023-03-01T02:28:06.178Z,1017.08
2023-03-01T02:29:06.208Z,1017.10
2023-03-01T02:30:06.396Z,1017.10
2023-03-01T02:31:06.415Z,1017.10
2023-03-01T02:32:06.214Z,1017.10
2023-03-01T02:33:06.149Z,1017.04
2023-03-01T02:34:06.106Z,1017.04
2023-03-01T02:35:06.106Z,1017.06
2023-03-01T02:36:06.308Z,1017.08
2023-03-01T02:37:06.089Z,1017.17
2023-03-01T02:38:06.066Z,1017.05
2023-03-01T02:39:06.055Z,1017.04
2023-03-01T02:40:06.052Z,1017.01
2023-03-01T02:41:06.247Z,1016.98
2023-03-01T02:42:06.016Z,1017.06
2023-03-01T02:43:05.994Z,1017.02
2023-03-01T02:44:05.991Z,1017.12
2023-03-01T02:45:05.972Z,1017.09
2023-03-01T02:46:06.077Z,1017.08
2023-03-01T02:47:06.205Z,1017.11
2023-03-01T02:48:05.944Z,1017.12
2023-03-01T02:49:05.933Z,1017.07
2023-03-01T02:50:05.938Z,1017.07
2023-03-01T02:51:06.143Z,1017.12
2023-03-01T02:52:05.903Z,1017.16
2023-03-01T02:53:05.885Z,1017.08
2023-03-01T02:54:05.886Z,1017.12
2023-03-01T02:55:05.864Z,1017.12
2023-03-01T02:56:06.063Z,1017.15
2023-03-01T02:57:06.033Z,1017.17
2023-03-01T02:58:06.033Z,1017.14
2023-03-01T02:59:05.813Z,1017.14
2023-03-01T03:00:05.792Z,1017.16
2023-03-01T03:01:05.822Z,1017.13
2023-03-01T03:02:05.799Z,1017.12
2023-03-01T03:03:05.973Z,1017.12
2023-03-01T03:04:05.795Z,1017.12
2023-03-01T03:05:05.728Z,1017.14
2023-03-01T03:06:05.732Z,1017.15
2023-03-01T03:07:05.741Z,1017.10
2023-03-01T03:08:06.143Z,1017.06
2023-03-01T03:09:05.721Z,1017.03
2023-03-01T03:10:05.673Z,1017.04
2023-03-01T03:11:05.656Z,1017.05
2023-03-01T03:12:05.838Z,1017.07
2023-03-01T03:13:05.624Z,1017.04
2023-03-01T03:14:05.616Z,1017.02
2023-03-01T03:15:05.619Z,1017.06
2023-03-01T03:16:05.818Z,1017.03
2023-03-01T03:17:05.584Z,1017.01
2023-03-01T03:18:05.575Z,1017.00
2023-03-01T03:19:05.554Z,1016.98
2023-03-01T03:20:05.544Z,1016.98
2023-03-01T03:21:05.754Z,1017.04
2023-03-01T03:22:05.724Z,1017.00
2023-03-01T03:23:05.505Z,1017.13
2023-03-01T03:24:05.501Z,1017.03
2023-03-01T03:25:05.703Z,1017.06
2023-03-01T03:26:05.460Z,1017.08
2023-03-01T03:27:05.460Z,1017.08
2023-03-01T03:28:05.449Z,1017.04
2023-03-01T03:29:05.662Z,1017.02
2023-03-01T03:30:05.420Z,1017.00
2023-03-01T03:31:05.409Z,1017.02
2023-03-01T03:32:05.447Z,1016.97
2023-03-01T03:33:05.569Z,1016.91
2023-03-01T03:34:05.369Z,1016.91
2023-03-01T03:35:05.366Z,1016.94
2023-03-01T03:36:05.604Z,1016.90
2023-03-01T03:37:05.336Z,1016.95
2023-03-01T03:38:05.322Z,1016.88
2023-03-01T03:39:05.496Z,1016.85
2023-03-01T03:40:05.308Z,1016.89
2023-03-01T03:41:05.294Z,1016.88
2023-03-01T03:42:05.456Z,1016.94
2023-03-01T03:43:05.260Z,1016.91
2023-03-01T03:44:05.245Z,1016.90
2023-03-01T03:45:05.454Z,1016.88
2023-03-01T03:46:05.262Z,1016.88
2023-03-01T03:47:05.216Z,1016.86
2023-03-01T03:48:05.198Z,1016.88
2023-03-01T03:49:05.394Z,1016.78
2023-03-01T03:50:05.178Z,1016.80
2023-03-01T03:51:05.363Z,1016.78
2023-03-01T03:52:05.153Z,1016.74
2023-03-01T03:53:05.156Z,1016.80
2023-03-01T03:54:05.448Z,1016.73
2023-03-01T03:55:05.130Z,1016.74
2023-03-01T03:56:06.576Z,1016.76
2023-03-01T03:57:05.098Z,1016.64
2023-03-01T03:58:05.084Z,1016.73
2023-03-01T03:59:05.285Z,1016.66
2023-03-01T04:00:05.050Z,1016.64
2023-03-01T04:01:05.055Z,1016.65
2023-03-01T04:02:05.022Z,1016.67
2023-03-01T04:03:05.203Z,1016.70
2023-03-01T04:04:05.379Z,1016.66
2023-03-01T04:05:05.002Z,1016.53
2023-03-01T04:06:05.214Z,1016.52
2023-03-01T04:07:04.970Z,1016.56
2023-03-01T04:08:05.157Z,1016.48
2023-03-01T04:09:05.144Z,1016.53
2023-03-01T04:10:05.136Z,1016.56
2023-03-01T04:11:04.918Z,1016.57
2023-03-01T04:12:04.900Z,1016.58
2023-03-01T04:13:04.887Z,1016.57
2023-03-01T04:14:05.091Z,1016.55
2023-03-01T04:15:04.867Z,1016.58
2023-03-01T04:16:04.944Z,1016.59
2023-03-01T04:17:04.835Z,1016.64
2023-03-01T04:18:04.842Z,1016.69
2023-03-01T04:19:05.027Z,1016.58
2023-03-01T04:20:04.809Z,1016.66
2023-03-01T04:21:04.786Z,1016.70
2023-03-01T04:22:05.169Z,1016.70
2023-03-01T04:23:04.773Z,1016.70
2023-03-01T04:24:04.973Z,1016.66
2023-03-01T04:25:04.745Z,1016.67
2023-03-01T04:26:04.747Z,1016.66
2023-03-01T04:27:04.731Z,1016.65
2023-03-01T04:28:04.928Z,1016.75
2023-03-01T04:29:04.694Z,1016.68
2023-03-01T04:30:04.692Z,1016.72
2023-03-01T04:31:04.692Z,1016.70
2023-03-01T04:32:04.739Z,1016.76
2023-03-01T04:33:04.833Z,1016.74
2023-03-01T04:34:04.646Z,1016.79
2023-03-01T04:35:04.621Z,1016.67
2023-03-01T04:36:04.895Z,1016.70
2023-03-01T04:37:04.602Z,1016.69
2023-03-01T04:38:04.603Z,1016.66
2023-03-01T04:39:04.629Z,1016.61
2023-03-01T04:40:04.563Z,1016.67
2023-03-01T04:41:04.552Z,1016.64
2023-03-01T04:42:04.541Z,1016.65
2023-03-01T04:43:04.522Z,1016.64
2023-03-01T04:44:04.713Z,1016.64
2023-03-01T04:45:04.499Z,1016.61
2023-03-01T04:46:04.542Z,1016.63
2023-03-01T04:47:04.480Z,1016.67
2023-03-01T04:48:04.480Z,1016.62
2023-03-01T04:49:04.668Z,1016.64
2023-03-01T04:50:04.449Z,1016.56
2023-03-01T04:51:04.430Z,1016.61
2023-03-01T04:52:04.427Z,1016.64
2023-03-01T04:53:04.425Z,1016.64
2023-03-01T04:54:04.422Z,1016.65
2023-03-01T04:55:04.376Z,1016.72
2023-03-01T04:56:04.388Z,1016.68
2023-03-01T04:57:04.351Z,1016.57
2023-03-01T04:58:04.575Z,1016.63
2023-03-01T04:59:04.336Z,1016.62
2023-03-01T05:00:04.565Z,1016.65
2023-03-01T05:01:04.303Z,1016.70
2023-03-01T05:02:04.293Z,1016.59
2023-03-01T05:03:04.347Z,1016.58
2023-03-01T05:04:04.343Z,1016.57
2023-03-01T05:05:04.477Z,1016.54
2023-03-01T05:06:04.278Z,1016.63
2023-03-01T05:07:04.462Z,1016.61
2023-03-01T05:08:04.255Z,1016.52
2023-03-01T05:09:04.223Z,1016.46
2023-03-01T05:10:04.228Z,1016.51
2023-03-01T05:11:04.182Z,1016.56
2023-03-01T05:12:04.174Z,1016.51
2023-03-01T05:13:04.392Z,1016.57
2023-03-01T05:14:04.172Z,1016.48
2023-03-01T05:15:04.352Z,1016.47
2023-03-01T05:16:04.227Z,1016.49
2023-03-01T05:17:04.129Z,1016.58
2023-03-01T05:18:04.104Z,1016.54
2023-03-01T05:19:04.302Z,1016.51
2023-03-01T05:20:04.108Z,1016.51
2023-03-01T05:21:04.106Z,1016.52
2023-03-01T05:22:04.276Z,1016.46
2023-03-01T05:23:04.082Z,1016.50
2023-03-01T05:24:04.111Z,1016.51
2023-03-01T05:25:04.009Z,1016.53
2023-03-01T05:26:04.008Z,1016.47
2023-03-01T05:27:04.036Z,1016.48
2023-03-01T05:28:04.017Z,1016.48
2023-03-01T05:29:03.956Z,1016.54
2023-03-01T05:30:03.957Z,1016.43
2023-03-01T05:31:03.998Z,1016.45
2023-03-01T05:32:03.968Z,1016.45
2023-03-01T05:33:03.921Z,1016.45
2023-03-01T05:34:03.910Z,1016.43
2023-03-01T05:35:03.896Z,1016.44
2023-03-01T05:36:03.915Z,1016.45
2023-03-01T05:37:03.883Z,1016.44
2023-03-01T05:38:03.854Z,1016.43
2023-03-01T05:39:03.838Z,1016.42
2023-03-01T05:40:03.823Z,1016.46
2023-03-01T05:41:03.854Z,1016.41
2023-03-01T05:42:03.816Z,1016.44
2023-03-01T05:43:03.803Z,1016.46
2023-03-01T05:44:03.782Z,1016.50
2023-03-01T05:45:03.773Z,1016.45
2023-03-01T05:46:03.836Z,1016.43
2023-03-01T05:47:03.754Z,1016.49
2023-03-01T05:48:03.732Z,1016.50
2023-03-01T05:49:03.720Z,1016.44
2023-03-01T05:50:03.701Z,1016.45
2023-03-01T05:51:03.730Z,1016.40
2023-03-01T05:52:03.690Z,1016.43
2023-03-01T05:53:03.681Z,1016.41
2023-03-01T05:54:03.657Z,1016.41
2023-03-01T05:55:03.651Z,1016.45
2023-03-01T05:56:03.663Z,1016.37
2023-03-01T05:57:03.638Z,1016.42
2023-03-01T05:58:03.618Z,1016.40
2023-03-01T05:59:03.609Z,1016.44
2023-03-01T06:00:03.598Z,1016.37
2023-03-01T06:01:03.591Z,1016.35
2023-03-01T06:02:03.599Z,1016.39
2023-03-01T06:03:03.559Z,1016.35
2023-03-01T06:04:03.538Z,1016.36
2023-03-01T06:05:03.597Z,1016.35
2023-03-01T06:06:03.736Z,1016.34
2023-03-01T06:07:03.509Z,1016.35
2023-03-01T06:08:03.500Z,1016.35
2023-03-01T06:09:03.494Z,1016.41
2023-03-01T06:10:03.464Z,1016.40
2023-03-01T06:11:03.476Z,1016.39
2023-03-01T06:12:03.467Z,1016.33
2023-03-01T06:13:03.449Z,1016.41
2023-03-01T06:14:03.417Z,1016.31
2023-03-01T06:15:03.618Z,1016.35
2023-03-01T06:16:03.508Z,1016.35
2023-03-01T06:17:03.399Z,1016.34
2023-03-01T06:18:03.377Z,1016.35
2023-03-01T06:19:03.397Z,1016.35
2023-03-01T06:20:03.336Z,1016.32
2023-03-01T06:21:03.372Z,1016.40
2023-03-01T06:22:03.547Z,1016.41
2023-03-01T06:23:03.312Z,1016.37
2023-03-01T06:24:03.302Z,1016.42
2023-03-01T06:25:03.296Z,1016.34
2023-03-01T06:26:03.304Z,1016.35
2023-03-01T06:27:03.481Z,1016.32
2023-03-01T06:28:03.269Z,1016.37
2023-03-01T06:29:03.268Z,1016.39
2023-03-01T06:30:03.234Z,1016.33
2023-03-01T06:31:03.242Z,1016.38
2023-03-01T06:32:03.242Z,1016.32
2023-03-01T06:33:03.191Z,1016.32
2023-03-01T06:34:03.384Z,1016.32
2023-03-01T06:35:03.174Z,1016.24
2023-03-01T06:36:03.181Z,1016.28
2023-03-01T06:37:03.163Z,1016.25
2023-03-01T06:38:03.337Z,1016.28
2023-03-01T06:39:03.340Z,1016.22
2023-03-01T06:40:03.134Z,1016.33
2023-03-01T06:41:03.104Z,1016.33
2023-03-01T06:42:03.082Z,1016.34
2023-03-01T06:43:03.068Z,1016.35
2023-03-01T06:44:03.049Z,1016.31
2023-03-01T06:45:03.080Z,1016.31
2023-03-01T06:46:03.023Z,1016.32
2023-03-01T06:47:03.023Z,1016.30
2023-03-01T06:48:03.000Z,1016.34
2023-03-01T06:49:02.990Z,1016.43
2023-03-01T06:50:02.997Z,1016.36
2023-03-01T06:51:02.973Z,1016.41
2023-03-01T06:52:02.950Z,1016.39
2023-03-01T06:53:02.960Z,1016.42
2023-03-01T06:54:02.935Z,1016.28
2023-03-01T06:55:03.103Z,1016.33
2023-03-01T06:56:03.083Z,1016.29
2023-03-01T06:57:02.902Z,1016.29
2023-03-01T06:58:02.895Z,1016.32
2023-03-01T06:59:02.886Z,1016.37
2023-03-01T07:00:02.850Z,1016.31
2023-03-01T07:01:04.880Z,1016.37
2023-03-01T07:02:02.885Z,1016.34
2023-03-01T07:03:03.054Z,1016.29
2023-03-01T07:04:02.821Z,1016.37
2023-03-01T07:05:02.809Z,1016.35
2023-03-01T07:06:02.948Z,1016.29
2023-03-01T07:07:02.955Z,1016.29
2023-03-01T07:08:02.799Z,1016.24
2023-03-01T07:09:02.920Z,1016.35
2023-03-01T07:10:02.730Z,1016.30
2023-03-01T07:11:02.756Z,1016.23
2023-03-01T07:12:02.719Z,1016.24
2023-03-01T07:13:02.707Z,1016.24
2023-03-01T07:14:02.695Z,1016.17
2023-03-01T07:15:02.680Z,1016.23
2023-03-01T07:16:02.888Z,1016.21
2023-03-01T07:17:02.823Z,1016.18
2023-03-01T07:18:02.637Z,1016.22
2023-03-01T07:19:02.627Z,1016.14
2023-03-01T07:20:02.630Z,1016.11
2023-03-01T07:21:02.782Z,1016.16
2023-03-01T07:22:02.805Z,1016.15
2023-03-01T07:23:02.583Z,1016.05
2023-03-01T07:24:02.554Z,1016.08
2023-03-01T07:25:02.569Z,1016.11
2023-03-01T07:26:02.715Z,1016.13
2023-03-01T07:27:02.723Z,1016.06
2023-03-01T07:28:02.511Z,1016.08
2023-03-01T07:29:02.501Z,1016.08
2023-03-01T07:30:02.505Z,1016.08
2023-03-01T07:31:02.657Z,1016.04
2023-03-01T07:32:02.590Z,1016.11
2023-03-01T07:33:02.541Z,1016.09
2023-03-01T07:34:02.446Z,1016.05
2023-03-01T07:35:02.448Z,1016.11
2023-03-01T07:36:02.635Z,1015.98
2023-03-01T07:37:02.586Z,1016.05
2023-03-01T07:38:02.396Z,1016.03
2023-03-01T07:39:02.380Z,1016.01
2023-03-01T07:40:02.356Z,1016.03
2023-03-01T07:41:02.368Z,1016.12
2023-03-01T07:42:02.372Z,1016.08
2023-03-01T07:43:02.326Z,1016.08
2023-03-01T07:44:02.309Z,1016.07
2023-03-01T07:45:02.322Z,1016.00
2023-03-01T07:46:02.324Z,1016.07
2023-03-01T07:47:02.278Z,1016.02
2023-03-01T07:48:02.447Z,1016.07
2023-03-01T07:49:02.432Z,1016.00
2023-03-01T07:50:02.253Z,1016.05
2023-03-01T07:51:02.234Z,1016.06
2023-03-01T07:52:02.236Z,1016.02
2023-03-01T07:53:02.224Z,1016.08
2023-03-01T07:54:02.217Z,1016.00
2023-03-01T07:55:02.196Z,1016.07
2023-03-01T07:56:02.176Z,1016.06
2023-03-01T07:57:02.159Z,1016.12
2023-03-01T07:58:02.158Z,1016.10
2023-03-01T07:59:02.132Z,1016.15
2023-03-01T08:00:02.140Z,1016.18
2023-03-01T08:01:02.124Z,1016.10
2023-03-01T08:02:02.132Z,1016.17
2023-03-01T08:03:02.269Z,1016.16
2023-03-01T08:04:02.077Z,1016.19
2023-03-01T08:05:02.063Z,1016.24
2023-03-01T08:06:02.043Z,1016.15
2023-03-01T08:07:02.039Z,1016.14
2023-03-01T08:08:02.023Z,1016.12
2023-03-01T08:09:02.208Z,1016.10
2023-03-01T08:10:02.012Z,1016.09
2023-03-01T08:11:01.998Z,1016.16
2023-03-01T08:12:02.038Z,1016.11
2023-03-01T08:13:01.961Z,1016.16
2023-03-01T08:14:01.946Z,1016.08
2023-03-01T08:15:02.086Z,1016.13
2023-03-01T08:16:01.981Z,1016.13
2023-03-01T08:17:01.925Z,1016.13
2023-03-01T08:18:01.896Z,1016.03
2023-03-01T08:19:01.891Z,1016.04
2023-03-01T08:20:01.893Z,1016.14
2023-03-01T08:21:01.862Z,1016.04
2023-03-01T08:22:01.843Z,1016.12
2023-03-01T08:23:01.848Z,1016.05
2023-03-01T08:24:01.825Z,1015.98
2023-03-01T08:25:01.859Z,1016.05
2023-03-01T08:26:01.969Z,1016.00
2023-03-01T08:27:01.781Z,1016.02
2023-03-01T08:28:01.769Z,1015.98
2023-03-01T08:29:01.762Z,1015.96
2023-03-01T08:30:01.765Z,1016.04
2023-03-01T08:31:01.923Z,1016.07
2023-03-01T08:32:01.843Z,1016.04
2023-03-01T08:33:01.739Z,1015.94
2023-03-01T08:34:01.729Z,1015.95
2023-03-01T08:35:01.697Z,1015.95
2023-03-01T08:36:01.710Z,1015.95
2023-03-01T08:37:01.857Z,1015.99
2023-03-01T08:38:01.648Z,1015.90
2023-03-01T08:39:01.636Z,1015.90
2023-03-01T08:40:01.685Z,1015.91
2023-03-01T08:41:01.610Z,1015.97
2023-03-01T08:42:01.808Z,1015.93
2023-03-01T08:43:01.590Z,1015.96
2023-03-01T08:44:01.577Z,1015.91
2023-03-01T08:45:01.576Z,1015.92
2023-03-01T08:46:01.583Z,1015.92
2023-03-01T08:47:01.791Z,1015.78
2023-03-01T08:48:01.528Z,1015.81
2023-03-01T08:49:01.687Z,1015.80
2023-03-01T08:50:01.676Z,1015.83
2023-03-01T08:51:01.504Z,1015.81
2023-03-01T08:52:01.464Z,1015.78
2023-03-01T08:53:01.465Z,1015.78
2023-03-01T08:54:01.460Z,1015.75
2023-03-01T08:55:01.615Z,1015.75
2023-03-01T08:56:01.434Z,1015.77
2023-03-01T08:57:01.417Z,1015.79
2023-03-01T08:58:01.393Z,1015.74
2023-03-01T08:59:01.573Z,1015.73
2023-03-01T09:00:01.400Z,1015.69
2023-03-01T09:01:01.385Z,1015.70
2023-03-01T09:02:01.365Z,1015.69
2023-03-01T09:03:01.367Z,1015.70
2023-03-01T09:04:01.359Z,1015.65
2023-03-01T09:05:01.510Z,1015.68
2023-03-01T09:06:01.309Z,1015.69
2023-03-01T09:07:01.482Z,1015.70
2023-03-01T09:08:01.332Z,1015.64
2023-03-01T09:09:01.273Z,1015.75
2023-03-01T09:10:01.249Z,1015.68
2023-03-01T09:11:01.425Z,1015.68
2023-03-01T09:12:01.230Z,1015.66
2023-03-01T09:13:01.220Z,1015.81
2023-03-01T09:14:01.203Z,1015.62
2023-03-01T09:15:01.202Z,1015.68
2023-03-01T09:16:01.359Z,1015.63
2023-03-01T09:17:01.210Z,1015.59
2023-03-01T09:18:01.161Z,1015.62
2023-03-01T09:19:01.149Z,1015.63
2023-03-01T09:20:01.160Z,1015.62
2023-03-01T09:21:01.128Z,1015.64
2023-03-01T09:22:01.281Z,1015.61
2023-03-01T09:23:01.109Z,1015.58
2023-03-01T09:24:01.089Z,1015.60
2023-03-01T09:25:01.078Z,1015.59
2023-03-01T09:26:01.058Z,1015.55
2023-03-01T09:27:01.247Z,1015.50
2023-03-01T09:28:01.031Z,1015.56
2023-03-01T09:29:01.037Z,1015.54
2023-03-01T09:30:00.999Z,1015.57
2023-03-01T09:31:01.025Z,1015.50
2023-03-01T09:32:01.003Z,1015.49
2023-03-01T09:33:01.155Z,1015.47
2023-03-01T09:34:01.126Z,1015.46
2023-03-01T09:35:00.969Z,1015.43
2023-03-01T09:36:01.021Z,1015.34
2023-03-01T09:37:00.931Z,1015.27
2023-03-01T09:38:00.905Z,1015.28
2023-03-01T09:39:01.104Z,1015.32
2023-03-01T09:40:00.889Z,1015.30
2023-03-01T09:41:00.875Z,1015.30
2023-03-01T09:42:00.862Z,1015.32
2023-03-01T09:43:00.859Z,1015.29
2023-03-01T09:44:01.008Z,1015.33
2023-03-01T09:45:00.831Z,1015.31
2023-03-01T09:46:00.810Z,1015.30
2023-03-01T09:47:00.807Z,1015.33
2023-03-01T09:48:00.783Z,1015.34
2023-03-01T09:49:00.952Z,1015.37
2023-03-01T09:50:00.923Z,1015.38
2023-03-01T09:51:00.757Z,1015.30
2023-03-01T09:52:00.789Z,1015.40
2023-03-01T09:53:00.735Z,1015.49
2023-03-01T09:54:00.706Z,1015.40
2023-03-01T09:55:01.161Z,1015.40
2023-03-01T09:56:00.674Z,1015.40
2023-03-01T09:57:00.673Z,1015.34
2023-03-01T09:58:00.661Z,1015.31
2023-03-01T09:59:00.651Z,1015.26
2023-03-01T10:00:00.828Z,1015.23
2023-03-01T10:01:00.684Z,1015.26
2023-03-01T10:02:00.610Z,1015.34
2023-03-01T10:03:00.595Z,1015.17
2023-03-01T10:04:00.625Z,1015.24
2023-03-01T10:05:00.805Z,1015.26
2023-03-01T10:06:00.721Z,1015.21
2023-03-01T10:07:00.541Z,1015.19
2023-03-01T10:08:00.568Z,1015.20
2023-03-01T10:09:00.530Z,1015.11
2023-03-01T10:10:00.523Z,1015.21
2023-03-01T10:11:00.508Z,1015.24
2023-03-01T10:12:00.490Z,1015.14
2023-03-01T10:13:00.469Z,1015.16
2023-03-01T10:14:00.458Z,1015.20
2023-03-01T10:15:00.458Z,1015.23
2023-03-01T10:16:00.695Z,1015.15
2023-03-01T10:17:00.419Z,1015.25
2023-03-01T10:18:00.399Z,1015.15
2023-03-01T10:19:00.420Z,1015.05
2023-03-01T10:20:00.381Z,1015.06
2023-03-01T10:21:00.375Z,1015.04
2023-03-01T10:22:00.518Z,1015.09
2023-03-01T10:23:00.356Z,1015.13
2023-03-01T10:24:00.340Z,1015.04
2023-03-01T10:25:00.307Z,1015.06
2023-03-01T10:26:00.303Z,1014.99
2023-03-01T10:27:00.463Z,1014.99
2023-03-01T10:28:00.265Z,1015.02
2023-03-01T10:29:00.267Z,1015.07
2023-03-01T10:30:00.244Z,1015.02
2023-03-01T10:31:00.361Z,1014.97
2023-03-01T10:32:00.444Z,1015.08
2023-03-01T10:33:01.035Z,1014.94
2023-03-01T10:34:00.204Z,1014.99
2023-03-01T10:35:00.182Z,1015.04
2023-03-01T10:36:00.222Z,1014.92
2023-03-01T10:37:00.325Z,1014.96
2023-03-01T10:38:00.324Z,1014.86
2023-03-01T10:39:00.131Z,1014.90
2023-03-01T10:40:00.129Z,1014.85
2023-03-01T10:41:00.116Z,1014.91
2023-03-01T10:42:00.148Z,1014.93
2023-03-01T10:43:00.254Z,1014.88
2023-03-01T10:44:00.090Z,1014.93
2023-03-01T10:45:00.053Z,1014.96
2023-03-01T10:46:00.095Z,1014.94
2023-03-01T10:47:00.042Z,1015.01
2023-03-01T10:48:00.191Z,1014.93
2023-03-01T10:49:00.002Z,1014.77
2023-03-01T10:49:59.993Z,1014.74
2023-03-01T10:51:00.007Z,1014.69
2023-03-01T10:51:59.967Z,1014.66
2023-03-01T10:53:00.126Z,1014.51
2023-03-01T10:53:59.949Z,1014.55
2023-03-01T10:54:59.929Z,1014.60
2023-03-01T10:55:59.932Z,1014.57
2023-03-01T10:56:59.936Z,1014.55
2023-03-01T10:58:00.059Z,1014.48
2023-03-01T10:58:59.888Z,1014.43
2023-03-01T10:59:59.868Z,1014.54
2023-03-01T11:00:59.854Z,1014.50
2023-03-01T11:01:59.846Z,1014.51
2023-03-01T11:02:59.999Z,1014.50
2023-03-01T11:03:59.808Z,1014.52
2023-03-01T11:04:59.919Z,1014.49
2023-03-01T11:05:59.880Z,1014.54
2023-03-01T11:06:59.858Z,1014.49
2023-03-01T11:08:00.297Z,1014.54
2023-03-01T11:08:59.845Z,1014.46
2023-03-01T11:10:00.136Z,1014.41
2023-03-01T11:10:59.717Z,1014.45
2023-03-01T11:11:59.699Z,1014.43
2023-03-01T11:12:59.698Z,1014.41
2023-03-01T11:13:59.686Z,1014.40
2023-03-01T11:14:59.685Z,1014.40
2023-03-01T11:15:59.705Z,1014.36
2023-03-01T11:16:59.638Z,1014.38
2023-03-01T11:18:12.725Z,1014.38
2023-03-01T11:19:00.818Z,1014.28
2023-03-01T11:20:02.553Z,1014.26
2023-03-01T11:20:59.586Z,1014.29
2023-03-01T11:21:59.618Z,1014.21
2023-03-01T11:22:59.579Z,1014.16
2023-03-01T11:23:59.724Z,1014.22
2023-03-01T11:25:09.394Z,1014.26
2023-03-01T11:26:00.522Z,1014.21
2023-03-01T11:26:59.515Z,1014.22
2023-03-01T11:27:59.508Z,1014.13
2023-03-01T11:28:59.708Z,1014.13
2023-03-01T11:29:59.647Z,1014.16
2023-03-01T11:31:08.165Z,1014.18
2023-03-01T11:32:00.574Z,1014.14
2023-03-01T11:32:59.624Z,1014.22
2023-03-01T11:33:59.412Z,1014.09
2023-03-01T11:34:59.416Z,1014.13
2023-03-01T11:35:59.395Z,1014.09
2023-03-01T11:36:59.389Z,1014.18
2023-03-01T11:37:59.372Z,1014.07
2023-03-01T11:38:59.376Z,1014.08
2023-03-01T11:39:59.605Z,1014.08
2023-03-01T11:40:59.497Z,1014.09
2023-03-01T11:42:03.591Z,1014.15
2023-03-01T11:43:00.345Z,1014.18
2023-03-01T11:43:59.297Z,1014.14
2023-03-01T11:44:59.574Z,1014.09
2023-03-01T11:45:59.446Z,1014.09
2023-03-01T11:46:59.319Z,1014.06
2023-03-01T11:47:59.238Z,1014.06
2023-03-01T11:48:59.228Z,1014.03
2023-03-01T11:49:59.214Z,1014.09
2023-03-01T11:50:59.375Z,1014.08
2023-03-01T11:51:59.195Z,1014.11
2023-03-01T11:52:59.165Z,1014.09
2023-03-01T11:53:59.188Z,1014.15
2023-03-01T11:54:59.192Z,1014.07
2023-03-01T11:55:59.304Z,1014.09
2023-03-01T11:56:59.145Z,1014.06
2023-03-01T11:57:59.106Z,1014.07
2023-03-01T11:58:59.101Z,1014.03
2023-03-01T11:59:59.086Z,1014.05
2023-03-01T12:00:59.085Z,1014.00
2023-03-01T12:01:59.181Z,1014.05
2023-03-01T12:02:59.033Z,1014.02
2023-03-01T12:03:59.105Z,1013.99
2023-03-01T12:04:59.024Z,1014.08